Time;durP1;ratioP1;P1;durP2;ratioP2;P2;SDS_P1;SDS_P2;PMS_P1;PMS_P2;Temp;Humidity;BMP_temperature;BMP_pressure;BME280_temperature;BME280_humidity;BME280_pressure;Samples;Min_cycle;Max_cycle;Signal;HPM_P1;HPM_P2
2020/03/12 00:00:14;;;;;;;2.65;1.45;;;;;;;9.78;84.1123;95255.53;;;;
2020/03/12 00:01:24;;;;;;;2.65;1.45;;;;;;;9.78;84.1123;95255.53;;;;
2020/03/12 00:02:26;;;;;;;2.65;1.45;;;;;;;9.78;84.1123;95255.53;;;;
2020/03/12 00:03:26;;;;;;;2.65;1.45;;;;;;;9.78;84.1123;95255.53;;;;
2020/03/12 00:04:27;;;;;;;2.65;1.45;;;;;;;9.78;84.1123;95255.53;;;;
2020/03/12 00:05:27;;;;;;;2.65;1.45;;;;;;;9.78;84.1123;95255.53;;;;
2020/03/12 00:06:29;;;;;;;2.65;1.45;;;;;;;9.78;84.1123;95255.53;;;;
2020/03/12 00:07:29;;;;;;;2.65;1.45;;;;;;;9.78;84.1123;95255.53;;;;
2020/03/12 00:08:30;;;;;;;2.65;1.45;;;;;;;9.78;84.1123;95255.53;;;;
2020/03/12 00:09:30;;;;;;;2.8;1.4;;;;;;;9.62;84.4541;95247.28;;;;
2020/03/12 00:10:34;;;;;;;2.8;1.4;;;;;;;9.62;84.4541;95247.28;;;;
2020/03/12 00:11:34;;;;;;;2.8;1.4;;;;;;;9.62;84.4541;95247.28;;;;
2020/03/12 00:12:35;;;;;;;2.8;1.4;;;;;;;9.62;84.4541;95247.28;;;;
2020/03/12 00:13:35;;;;;;;2.8;1.4;;;;;;;9.62;84.4541;95247.28;;;;
2020/03/12 00:14:36;;;;;;;2.8;1.4;;;;;;;9.62;84.4541;95247.28;;;;
2020/03/12 00:16:08;;;;;;;2.8;1.4;;;;;;;9.62;84.4541;95247.28;;;;
2020/03/12 00:17:09;;;;;;;2.8;1.4;;;;;;;9.62;84.4541;95247.28;;;;
2020/03/12 00:18:09;;;;;;;2.8;1.4;;;;;;;9.62;84.4541;95247.28;;;;
2020/03/12 00:19:10;;;;;;;2.8;1.4;;;;;;;9.62;84.4541;95247.28;;;;
2020/03/12 00:20:10;;;;;;;1.6;1.5;;;;;;;9.54;85.38477;95245.31;;;;
2020/03/12 00:21:11;;;;;;;1.6;1.5;;;;;;;9.54;85.38477;95245.31;;;;
2020/03/12 00:22:12;;;;;;;1.6;1.5;;;;;;;9.54;85.38477;95245.31;;;;
2020/03/12 00:23:12;;;;;;;1.6;1.5;;;;;;;9.54;85.38477;95245.31;;;;
2020/03/12 00:24:12;;;;;;;1.6;1.5;;;;;;;9.54;85.38477;95245.31;;;;
2020/03/12 00:25:13;;;;;;;1.6;1.5;;;;;;;9.54;85.38477;95245.31;;;;
2020/03/12 00:26:13;;;;;;;1.6;1.5;;;;;;;9.54;85.38477;95245.31;;;;
2020/03/12 00:27:14;;;;;;;1.6;1.5;;;;;;;9.54;85.38477;95245.31;;;;
2020/03/12 00:28:14;;;;;;;1.6;1.5;;;;;;;9.54;85.38477;95245.31;;;;
2020/03/12 00:29:15;;;;;;;1.6;1.5;;;;;;;9.54;85.38477;95245.31;;;;
2020/03/12 00:30:15;;;;;;;1.9;1.7;;;;;;;9.44;86.25977;95236.98;;;;
2020/03/12 00:31:16;;;;;;;1.9;1.7;;;;;;;9.44;86.25977;95236.98;;;;
2020/03/12 00:32:16;;;;;;;1.9;1.7;;;;;;;9.44;86.25977;95236.98;;;;
2020/03/12 00:33:17;;;;;;;1.9;1.7;;;;;;;9.44;86.25977;95236.98;;;;
2020/03/12 00:34:18;;;;;;;1.9;1.7;;;;;;;9.44;86.25977;95236.98;;;;
2020/03/12 00:35:18;;;;;;;1.9;1.7;;;;;;;9.44;86.25977;95236.98;;;;
2020/03/12 00:36:19;;;;;;;1.9;1.7;;;;;;;9.44;86.25977;95236.98;;;;
2020/03/12 00:37:19;;;;;;;1.9;1.7;;;;;;;9.44;86.25977;95236.98;;;;
2020/03/12 00:38:20;;;;;;;1.9;1.7;;;;;;;9.44;86.25977;95236.98;;;;
2020/03/12 00:39:20;;;;;;;1.9;1.7;;;;;;;9.44;86.25977;95236.98;;;;
2020/03/12 00:40:22;;;;;;;1.9;1.7;;;;;;;9.44;86.25977;95236.98;;;;
2020/03/12 00:41:23;;;;;;;2.35;1.4;;;;;;;9.34;86.93262;95233.89;;;;
2020/03/12 00:42:23;;;;;;;2.35;1.4;;;;;;;9.34;86.93262;95233.89;;;;
2020/03/12 00:43:24;;;;;;;2.35;1.4;;;;;;;9.34;86.93262;95233.89;;;;
2020/03/12 00:44:24;;;;;;;2.35;1.4;;;;;;;9.34;86.93262;95233.89;;;;
2020/03/12 00:45:24;;;;;;;2.35;1.4;;;;;;;9.34;86.93262;95233.89;;;;
2020/03/12 00:46:25;;;;;;;2.35;1.4;;;;;;;9.34;86.93262;95233.89;;;;
2020/03/12 00:47:26;;;;;;;2.35;1.4;;;;;;;9.34;86.93262;95233.89;;;;
2020/03/12 00:48:26;;;;;;;2.35;1.4;;;;;;;9.34;86.93262;95233.89;;;;
2020/03/12 00:49:26;;;;;;;2.35;1.4;;;;;;;9.34;86.93262;95233.89;;;;
2020/03/12 00:50:27;;;;;;;2.35;1.4;;;;;;;9.34;86.93262;95233.89;;;;
2020/03/12 00:51:27;;;;;;;2.8;1.7;;;;;;;9.03;87.18848;95217.16;;;;
2020/03/12 00:52:28;;;;;;;2.8;1.7;;;;;;;9.03;87.18848;95217.16;;;;
2020/03/12 00:53:28;;;;;;;2.8;1.7;;;;;;;9.03;87.18848;95217.16;;;;
2020/03/12 00:54:29;;;;;;;2.8;1.7;;;;;;;9.03;87.18848;95217.16;;;;
2020/03/12 00:55:29;;;;;;;2.8;1.7;;;;;;;9.03;87.18848;95217.16;;;;
2020/03/12 00:56:29;;;;;;;2.8;1.7;;;;;;;9.03;87.18848;95217.16;;;;
2020/03/12 00:57:30;;;;;;;2.8;1.7;;;;;;;9.03;87.18848;95217.16;;;;
2020/03/12 00:58:30;;;;;;;2.8;1.7;;;;;;;9.03;87.18848;95217.16;;;;
2020/03/12 00:59:31;;;;;;;2.8;1.7;;;;;;;9.03;87.18848;95217.16;;;;
2020/03/12 01:00:31;;;;;;;2.8;1.7;;;;;;;9.03;87.18848;95217.16;;;;
2020/03/12 01:01:33;;;;;;;2.8;1.7;;;;;;;9.03;87.18848;95217.16;;;;
2020/03/12 01:02:34;;;;;;;3.05;1.7;;;;;;;8.7;87.66211;95209.09;;;;
2020/03/12 01:03:35;;;;;;;3.05;1.7;;;;;;;8.7;87.66211;95209.09;;;;
2020/03/12 01:04:35;;;;;;;3.05;1.7;;;;;;;8.7;87.66211;95209.09;;;;
2020/03/12 01:05:36;;;;;;;3.05;1.7;;;;;;;8.7;87.66211;95209.09;;;;
2020/03/12 01:06:37;;;;;;;3.05;1.7;;;;;;;8.7;87.66211;95209.09;;;;
2020/03/12 01:07:38;;;;;;;3.05;1.7;;;;;;;8.7;87.66211;95209.09;;;;
2020/03/12 01:08:39;;;;;;;3.05;1.7;;;;;;;8.7;87.66211;95209.09;;;;
2020/03/12 01:09:39;;;;;;;3.05;1.7;;;;;;;8.7;87.66211;95209.09;;;;
2020/03/12 01:10:40;;;;;;;3.05;1.7;;;;;;;8.7;87.66211;95209.09;;;;
2020/03/12 01:11:40;;;;;;;3.05;1.7;;;;;;;8.7;87.66211;95209.09;;;;
2020/03/12 01:12:41;;;;;;;2.2;1.7;;;;;;;8.24;88.02539;95207.84;;;;
2020/03/12 01:13:41;;;;;;;2.2;1.7;;;;;;;8.24;88.02539;95207.84;;;;
2020/03/12 01:14:42;;;;;;;2.2;1.7;;;;;;;8.24;88.02539;95207.84;;;;
2020/03/12 01:15:43;;;;;;;2.2;1.7;;;;;;;8.24;88.02539;95207.84;;;;
2020/03/12 01:16:43;;;;;;;2.2;1.7;;;;;;;8.24;88.02539;95207.84;;;;
2020/03/12 01:17:44;;;;;;;2.2;1.7;;;;;;;8.24;88.02539;95207.84;;;;
2020/03/12 01:18:45;;;;;;;2.2;1.7;;;;;;;8.24;88.02539;95207.84;;;;
2020/03/12 01:19:45;;;;;;;2.2;1.7;;;;;;;8.24;88.02539;95207.84;;;;
2020/03/12 01:20:46;;;;;;;2.2;1.7;;;;;;;8.24;88.02539;95207.84;;;;
2020/03/12 01:21:46;;;;;;;2.2;1.7;;;;;;;8.24;88.02539;95207.84;;;;
2020/03/12 01:22:48;;;;;;;2.2;1.7;;;;;;;8.24;88.02539;95207.84;;;;
2020/03/12 01:23:51;;;;;;;2;1.8;;;;;;;7.82;88.5791;95209.5;;;;
2020/03/12 01:24:52;;;;;;;2;1.8;;;;;;;7.82;88.5791;95209.5;;;;
2020/03/12 01:25:52;;;;;;;2;1.8;;;;;;;7.82;88.5791;95209.5;;;;
2020/03/12 01:26:53;;;;;;;2;1.8;;;;;;;7.82;88.5791;95209.5;;;;
2020/03/12 01:27:53;;;;;;;2;1.8;;;;;;;7.82;88.5791;95209.5;;;;
2020/03/12 01:28:54;;;;;;;2;1.8;;;;;;;7.82;88.5791;95209.5;;;;
2020/03/12 01:29:54;;;;;;;2;1.8;;;;;;;7.82;88.5791;95209.5;;;;
2020/03/12 01:30:55;;;;;;;2;1.8;;;;;;;7.82;88.5791;95209.5;;;;
2020/03/12 01:31:55;;;;;;;2;1.8;;;;;;;7.82;88.5791;95209.5;;;;
2020/03/12 01:32:56;;;;;;;2;1.8;;;;;;;7.82;88.5791;95209.5;;;;
2020/03/12 01:33:56;;;;;;;2.6;1.6;;;;;;;7.38;89.07031;95196.62;;;;
2020/03/12 01:34:57;;;;;;;2.6;1.6;;;;;;;7.38;89.07031;95196.62;;;;
2020/03/12 01:35:57;;;;;;;2.6;1.6;;;;;;;7.38;89.07031;95196.62;;;;
2020/03/12 01:36:58;;;;;;;2.6;1.6;;;;;;;7.38;89.07031;95196.62;;;;
2020/03/12 01:37:58;;;;;;;2.6;1.6;;;;;;;7.38;89.07031;95196.62;;;;
2020/03/12 01:38:59;;;;;;;2.6;1.6;;;;;;;7.38;89.07031;95196.62;;;;
2020/03/12 01:39:59;;;;;;;2.6;1.6;;;;;;;7.38;89.07031;95196.62;;;;
2020/03/12 01:41:00;;;;;;;2.6;1.6;;;;;;;7.38;89.07031;95196.62;;;;
2020/03/12 01:42:00;;;;;;;2.6;1.6;;;;;;;7.38;89.07031;95196.62;;;;
2020/03/12 01:43:01;;;;;;;2.6;1.6;;;;;;;7.38;89.07031;95196.62;;;;
2020/03/12 01:44:02;;;;;;;2.6;1.6;;;;;;;7.38;89.07031;95196.62;;;;
2020/03/12 01:45:02;;;;;;;3;1.9;;;;;;;7.06;89.68945;95186.11;;;;
2020/03/12 01:46:11;;;;;;;3;1.9;;;;;;;7.06;89.68945;95186.11;;;;
2020/03/12 01:47:11;;;;;;;3;1.9;;;;;;;7.06;89.68945;95186.11;;;;
2020/03/12 01:48:12;;;;;;;3;1.9;;;;;;;7.06;89.68945;95186.11;;;;
2020/03/12 01:49:12;;;;;;;3;1.9;;;;;;;7.06;89.68945;95186.11;;;;
2020/03/12 01:50:13;;;;;;;3;1.9;;;;;;;7.06;89.68945;95186.11;;;;
2020/03/12 01:51:13;;;;;;;3;1.9;;;;;;;7.06;89.68945;95186.11;;;;
2020/03/12 01:52:14;;;;;;;3;1.9;;;;;;;7.06;89.68945;95186.11;;;;
2020/03/12 01:53:14;;;;;;;3;1.9;;;;;;;7.06;89.68945;95186.11;;;;
2020/03/12 01:54:15;;;;;;;3;1.9;;;;;;;7.06;89.68945;95186.11;;;;
2020/03/12 01:55:16;;;;;;;2.65;1.9;;;;;;;6.68;90.12891;95182.11;;;;
2020/03/12 01:56:16;;;;;;;2.65;1.9;;;;;;;6.68;90.12891;95182.11;;;;
2020/03/12 01:57:19;;;;;;;2.65;1.9;;;;;;;6.68;90.12891;95182.11;;;;
2020/03/12 01:58:28;;;;;;;2.65;1.9;;;;;;;6.68;90.12891;95182.11;;;;
2020/03/12 01:59:31;;;;;;;2.65;1.9;;;;;;;6.68;90.12891;95182.11;;;;
2020/03/12 02:00:37;;;;;;;2.65;1.9;;;;;;;6.68;90.12891;95182.11;;;;
2020/03/12 02:01:43;;;;;;;2.65;1.9;;;;;;;6.68;90.12891;95182.11;;;;
2020/03/12 02:02:44;;;;;;;2.65;1.9;;;;;;;6.68;90.12891;95182.11;;;;
2020/03/12 02:03:44;;;;;;;2.65;1.9;;;;;;;6.68;90.12891;95182.11;;;;
2020/03/12 02:04:48;;;;;;;2.65;1.9;;;;;;;6.68;90.12891;95182.11;;;;
2020/03/12 02:05:49;;;;;;;2.45;1.85;;;;;;;6.4;90.67285;95175.34;;;;
2020/03/12 02:06:50;;;;;;;2.45;1.85;;;;;;;6.4;90.67285;95175.34;;;;
2020/03/12 02:07:52;;;;;;;2.45;1.85;;;;;;;6.4;90.67285;95175.34;;;;
2020/03/12 02:08:54;;;;;;;2.45;1.85;;;;;;;6.4;90.67285;95175.34;;;;
2020/03/12 02:09:55;;;;;;;2.45;1.85;;;;;;;6.4;90.67285;95175.34;;;;
2020/03/12 02:10:55;;;;;;;2.45;1.85;;;;;;;6.4;90.67285;95175.34;;;;
2020/03/12 02:11:56;;;;;;;2.45;1.85;;;;;;;6.4;90.67285;95175.34;;;;
2020/03/12 02:12:57;;;;;;;2.45;1.85;;;;;;;6.4;90.67285;95175.34;;;;
2020/03/12 02:13:58;;;;;;;2.45;1.85;;;;;;;6.4;90.67285;95175.34;;;;
2020/03/12 02:14:58;;;;;;;2.45;1.85;;;;;;;6.4;90.67285;95175.34;;;;
2020/03/12 02:15:59;;;;;;;2.45;1.85;;;;;;;6.4;90.67285;95175.34;;;;
2020/03/12 02:17:05;;;;;;;2;1.9;;;;;;;6.12;91.12012;95161.41;;;;
2020/03/12 02:18:10;;;;;;;2;1.9;;;;;;;6.12;91.12012;95161.41;;;;
2020/03/12 02:19:10;;;;;;;2;1.9;;;;;;;6.12;91.12012;95161.41;;;;
2020/03/12 02:20:13;;;;;;;2;1.9;;;;;;;6.12;91.12012;95161.41;;;;
2020/03/12 02:21:19;;;;;;;2;1.9;;;;;;;6.12;91.12012;95161.41;;;;
2020/03/12 02:22:23;;;;;;;2;1.9;;;;;;;6.12;91.12012;95161.41;;;;
2020/03/12 02:23:24;;;;;;;2;1.9;;;;;;;6.12;91.12012;95161.41;;;;
2020/03/12 02:24:26;;;;;;;2;1.9;;;;;;;6.12;91.12012;95161.41;;;;
2020/03/12 02:25:27;;;;;;;2;1.9;;;;;;;6.12;91.12012;95161.41;;;;
2020/03/12 02:26:28;;;;;;;2;1.9;;;;;;;6.12;91.12012;95161.41;;;;
2020/03/12 02:27:35;;;;;;;2.5;1.7;;;;;;;5.96;91.5498;95156.1;;;;
2020/03/12 02:28:36;;;;;;;2.5;1.7;;;;;;;5.96;91.5498;95156.1;;;;
2020/03/12 02:29:39;;;;;;;2.5;1.7;;;;;;;5.96;91.5498;95156.1;;;;
2020/03/12 02:30:45;;;;;;;2.5;1.7;;;;;;;5.96;91.5498;95156.1;;;;
2020/03/12 02:31:50;;;;;;;2.5;1.7;;;;;;;5.96;91.5498;95156.1;;;;
2020/03/12 02:32:51;;;;;;;2.5;1.7;;;;;;;5.96;91.5498;95156.1;;;;
2020/03/12 02:33:52;;;;;;;2.5;1.7;;;;;;;5.96;91.5498;95156.1;;;;
2020/03/12 02:34:53;;;;;;;2.5;1.7;;;;;;;5.96;91.5498;95156.1;;;;
2020/03/12 02:35:54;;;;;;;2.5;1.7;;;;;;;5.96;91.5498;95156.1;;;;
2020/03/12 02:36:57;;;;;;;2.5;1.7;;;;;;;5.96;91.5498;95156.1;;;;
2020/03/12 02:38:44;;;;;;;2.7;1.9;;;;;;;5.8;92.05273;95147.47;;;;
2020/03/12 02:39:47;;;;;;;2.7;1.9;;;;;;;5.8;92.05273;95147.47;;;;
2020/03/12 02:40:52;;;;;;;2.7;1.9;;;;;;;5.8;92.05273;95147.47;;;;
2020/03/12 02:41:57;;;;;;;2.7;1.9;;;;;;;5.8;92.05273;95147.47;;;;
2020/03/12 02:43:01;;;;;;;2.7;1.9;;;;;;;5.8;92.05273;95147.47;;;;
2020/03/12 02:44:06;;;;;;;2.7;1.9;;;;;;;5.8;92.05273;95147.47;;;;
2020/03/12 02:45:15;;;;;;;2.7;1.9;;;;;;;5.8;92.05273;95147.47;;;;
2020/03/12 02:46:22;;;;;;;2.7;1.9;;;;;;;5.8;92.05273;95147.47;;;;
2020/03/12 02:47:25;;;;;;;2.7;1.9;;;;;;;5.8;92.05273;95147.47;;;;
2020/03/12 02:48:31;;;;;;;1.9;1.5;;;;;;;5.69;92.42871;95131.62;;;;
2020/03/12 02:49:37;;;;;;;1.9;1.5;;;;;;;5.69;92.42871;95131.62;;;;
2020/03/12 02:50:38;;;;;;;1.9;1.5;;;;;;;5.69;92.42871;95131.62;;;;
2020/03/12 02:51:39;;;;;;;1.9;1.5;;;;;;;5.69;92.42871;95131.62;;;;
2020/03/12 02:52:44;;;;;;;1.9;1.5;;;;;;;5.69;92.42871;95131.62;;;;
2020/03/12 02:53:56;;;;;;;1.9;1.5;;;;;;;5.69;92.42871;95131.62;;;;
2020/03/12 02:56:03;;;;;;;1.9;1.5;;;;;;;5.69;92.42871;95131.62;;;;
2020/03/12 02:57:12;;;;;;;1.9;1.5;;;;;;;5.69;92.42871;95131.62;;;;
2020/03/12 02:58:13;;;;;;;1.9;1.5;;;;;;;5.69;92.42871;95131.62;;;;
2020/03/12 02:59:16;;;;;;;1.95;1.7;;;;;;;5.56;92.6123;95126.7;;;;
2020/03/12 03:00:20;;;;;;;1.95;1.7;;;;;;;5.56;92.6123;95126.7;;;;
2020/03/12 03:01:20;;;;;;;1.95;1.7;;;;;;;5.56;92.6123;95126.7;;;;
2020/03/12 03:02:21;;;;;;;1.95;1.7;;;;;;;5.56;92.6123;95126.7;;;;
2020/03/12 03:03:22;;;;;;;1.95;1.7;;;;;;;5.56;92.6123;95126.7;;;;
2020/03/12 03:04:23;;;;;;;1.95;1.7;;;;;;;5.56;92.6123;95126.7;;;;
2020/03/12 03:05:24;;;;;;;1.95;1.7;;;;;;;5.56;92.6123;95126.7;;;;
2020/03/12 03:06:25;;;;;;;1.95;1.7;;;;;;;5.56;92.6123;95126.7;;;;
2020/03/12 03:07:26;;;;;;;1.95;1.7;;;;;;;5.56;92.6123;95126.7;;;;
2020/03/12 03:08:29;;;;;;;1.95;1.7;;;;;;;5.56;92.6123;95126.7;;;;
2020/03/12 03:09:31;;;;;;;2.2;1.6;;;;;;;5.41;92.69629;95108.31;;;;
2020/03/12 03:10:34;;;;;;;2.2;1.6;;;;;;;5.41;92.69629;95108.31;;;;
2020/03/12 03:11:40;;;;;;;2.2;1.6;;;;;;;5.41;92.69629;95108.31;;;;
2020/03/12 03:12:44;;;;;;;2.2;1.6;;;;;;;5.41;92.69629;95108.31;;;;
2020/03/12 03:13:48;;;;;;;2.2;1.6;;;;;;;5.41;92.69629;95108.31;;;;
2020/03/12 03:14:53;;;;;;;2.2;1.6;;;;;;;5.41;92.69629;95108.31;;;;
2020/03/12 03:16:01;;;;;;;2.2;1.6;;;;;;;5.41;92.69629;95108.31;;;;
2020/03/12 03:17:04;;;;;;;2.2;1.6;;;;;;;5.41;92.69629;95108.31;;;;
2020/03/12 03:18:06;;;;;;;2.2;1.6;;;;;;;5.41;92.69629;95108.31;;;;
2020/03/12 03:19:07;;;;;;;2.2;1.6;;;;;;;5.41;92.69629;95108.31;;;;
2020/03/12 03:20:09;;;;;;;2.3;1.7;;;;;;;5.16;92.87305;95104.22;;;;
2020/03/12 03:21:10;;;;;;;2.3;1.7;;;;;;;5.16;92.87305;95104.22;;;;
2020/03/12 03:22:11;;;;;;;2.3;1.7;;;;;;;5.16;92.87305;95104.22;;;;
2020/03/12 03:23:15;;;;;;;2.3;1.7;;;;;;;5.16;92.87305;95104.22;;;;
2020/03/12 03:24:20;;;;;;;2.3;1.7;;;;;;;5.16;92.87305;95104.22;;;;
2020/03/12 03:25:24;;;;;;;2.3;1.7;;;;;;;5.16;92.87305;95104.22;;;;
2020/03/12 03:27:04;;;;;;;2.3;1.7;;;;;;;5.16;92.87305;95104.22;;;;
2020/03/12 03:28:08;;;;;;;2.3;1.7;;;;;;;5.16;92.87305;95104.22;;;;
2020/03/12 03:29:15;;;;;;;2.3;1.7;;;;;;;5.16;92.87305;95104.22;;;;
2020/03/12 03:30:22;;;;;;;2.3;1.7;;;;;;;5.16;92.87305;95104.22;;;;
2020/03/12 03:31:39;;;;;;;1.7;1.6;;;;;;;5.05;93.33203;95086.53;;;;
2020/03/12 03:32:45;;;;;;;1.7;1.6;;;;;;;5.05;93.33203;95086.53;;;;
2020/03/12 03:33:46;;;;;;;1.7;1.6;;;;;;;5.05;93.33203;95086.53;;;;
2020/03/12 03:34:48;;;;;;;1.7;1.6;;;;;;;5.05;93.33203;95086.53;;;;
2020/03/12 03:35:52;;;;;;;1.7;1.6;;;;;;;5.05;93.33203;95086.53;;;;
2020/03/12 03:36:59;;;;;;;1.7;1.6;;;;;;;5.05;93.33203;95086.53;;;;
2020/03/12 03:38:03;;;;;;;1.7;1.6;;;;;;;5.05;93.33203;95086.53;;;;
2020/03/12 03:39:05;;;;;;;1.7;1.6;;;;;;;5.05;93.33203;95086.53;;;;
2020/03/12 03:40:14;;;;;;;1.7;1.6;;;;;;;5.05;93.33203;95086.53;;;;
2020/03/12 03:41:24;;;;;;;2.2;1.7;;;;;;;4.94;93.51758;95079.12;;;;
2020/03/12 03:42:46;;;;;;;2.2;1.7;;;;;;;4.94;93.51758;95079.12;;;;
2020/03/12 03:43:50;;;;;;;2.2;1.7;;;;;;;4.94;93.51758;95079.12;;;;
2020/03/12 03:44:52;;;;;;;2.2;1.7;;;;;;;4.94;93.51758;95079.12;;;;
2020/03/12 03:46:00;;;;;;;2.2;1.7;;;;;;;4.94;93.51758;95079.12;;;;
2020/03/12 03:47:04;;;;;;;2.2;1.7;;;;;;;4.94;93.51758;95079.12;;;;
2020/03/12 03:48:08;;;;;;;2.2;1.7;;;;;;;4.94;93.51758;95079.12;;;;
2020/03/12 03:49:18;;;;;;;2.2;1.7;;;;;;;4.94;93.51758;95079.12;;;;
2020/03/12 03:50:28;;;;;;;2.2;1.7;;;;;;;4.94;93.51758;95079.12;;;;
2020/03/12 03:51:30;;;;;;;2.2;1.7;;;;;;;4.94;93.51758;95079.12;;;;
2020/03/12 03:52:43;;;;;;;1.8;1.55;;;;;;;4.88;93.80078;95072.33;;;;
2020/03/12 03:53:46;;;;;;;1.8;1.55;;;;;;;4.88;93.80078;95072.33;;;;
2020/03/12 03:54:49;;;;;;;1.8;1.55;;;;;;;4.88;93.80078;95072.33;;;;
2020/03/12 03:55:52;;;;;;;1.8;1.55;;;;;;;4.88;93.80078;95072.33;;;;
2020/03/12 03:56:53;;;;;;;1.8;1.55;;;;;;;4.88;93.80078;95072.33;;;;
2020/03/12 03:57:57;;;;;;;1.8;1.55;;;;;;;4.88;93.80078;95072.33;;;;
2020/03/12 03:59:02;;;;;;;1.8;1.55;;;;;;;4.88;93.80078;95072.33;;;;
2020/03/12 04:00:04;;;;;;;1.8;1.55;;;;;;;4.88;93.80078;95072.33;;;;
2020/03/12 04:01:05;;;;;;;1.8;1.55;;;;;;;4.88;93.80078;95072.33;;;;
2020/03/12 04:02:06;;;;;;;1.8;1.55;;;;;;;4.88;93.80078;95072.33;;;;
2020/03/12 04:03:06;;;;;;;2.6;2;;;;;;;4.77;94.05957;95075.11;;;;
2020/03/12 04:04:07;;;;;;;2.6;2;;;;;;;4.77;94.05957;95075.11;;;;
2020/03/12 04:05:07;;;;;;;2.6;2;;;;;;;4.77;94.05957;95075.11;;;;
2020/03/12 04:06:10;;;;;;;2.6;2;;;;;;;4.77;94.05957;95075.11;;;;
2020/03/12 04:07:22;;;;;;;2.6;2;;;;;;;4.77;94.05957;95075.11;;;;
2020/03/12 04:08:28;;;;;;;2.6;2;;;;;;;4.77;94.05957;95075.11;;;;
2020/03/12 04:09:31;;;;;;;2.6;2;;;;;;;4.77;94.05957;95075.11;;;;
2020/03/12 04:10:36;;;;;;;2.6;2;;;;;;;4.77;94.05957;95075.11;;;;
2020/03/12 04:11:46;;;;;;;2.6;2;;;;;;;4.77;94.05957;95075.11;;;;
2020/03/12 04:12:51;;;;;;;2.65;1.5;;;;;;;4.93;94.87988;95078.41;;;;
2020/03/12 04:13:59;;;;;;;2.65;1.5;;;;;;;4.93;94.87988;95078.41;;;;
2020/03/12 04:15:02;;;;;;;2.65;1.5;;;;;;;4.93;94.87988;95078.41;;;;
2020/03/12 04:16:07;;;;;;;2.65;1.5;;;;;;;4.93;94.87988;95078.41;;;;
2020/03/12 04:17:08;;;;;;;2.65;1.5;;;;;;;4.93;94.87988;95078.41;;;;
2020/03/12 04:18:14;;;;;;;2.65;1.5;;;;;;;4.93;94.87988;95078.41;;;;
2020/03/12 04:19:15;;;;;;;2.65;1.5;;;;;;;4.93;94.87988;95078.41;;;;
2020/03/12 04:20:17;;;;;;;2.65;1.5;;;;;;;4.93;94.87988;95078.41;;;;
2020/03/12 04:21:21;;;;;;;2.65;1.5;;;;;;;4.93;94.87988;95078.41;;;;
2020/03/12 04:22:25;;;;;;;2.65;1.5;;;;;;;4.93;94.87988;95078.41;;;;
2020/03/12 04:23:26;;;;;;;1.9;1.65;;;;;;;5.08;94.98828;95081.59;;;;
2020/03/12 04:24:29;;;;;;;1.9;1.65;;;;;;;5.08;94.98828;95081.59;;;;
2020/03/12 04:25:30;;;;;;;1.9;1.65;;;;;;;5.08;94.98828;95081.59;;;;
2020/03/12 04:26:31;;;;;;;1.9;1.65;;;;;;;5.08;94.98828;95081.59;;;;
2020/03/12 04:27:39;;;;;;;1.9;1.65;;;;;;;5.08;94.98828;95081.59;;;;
2020/03/12 04:28:48;;;;;;;1.9;1.65;;;;;;;5.08;94.98828;95081.59;;;;
2020/03/12 04:29:54;;;;;;;1.9;1.65;;;;;;;5.08;94.98828;95081.59;;;;
2020/03/12 04:30:57;;;;;;;1.9;1.65;;;;;;;5.08;94.98828;95081.59;;;;
2020/03/12 04:31:57;;;;;;;1.9;1.65;;;;;;;5.08;94.98828;95081.59;;;;
2020/03/12 04:32:58;;;;;;;1.9;1.65;;;;;;;5.08;94.98828;95081.59;;;;
2020/03/12 04:33:59;;;;;;;2.6;1.6;;;;;;;5.2;95.37012;95073.35;;;;
2020/03/12 04:35:04;;;;;;;2.6;1.6;;;;;;;5.2;95.37012;95073.35;;;;
2020/03/12 04:36:11;;;;;;;2.6;1.6;;;;;;;5.2;95.37012;95073.35;;;;
2020/03/12 04:37:15;;;;;;;2.6;1.6;;;;;;;5.2;95.37012;95073.35;;;;
2020/03/12 04:38:17;;;;;;;2.6;1.6;;;;;;;5.2;95.37012;95073.35;;;;
2020/03/12 04:39:18;;;;;;;2.6;1.6;;;;;;;5.2;95.37012;95073.35;;;;
2020/03/12 04:40:24;;;;;;;2.6;1.6;;;;;;;5.2;95.37012;95073.35;;;;
2020/03/12 04:41:24;;;;;;;2.6;1.6;;;;;;;5.2;95.37012;95073.35;;;;
2020/03/12 04:42:25;;;;;;;2.6;1.6;;;;;;;5.2;95.37012;95073.35;;;;
2020/03/12 04:43:27;;;;;;;2.6;1.6;;;;;;;5.2;95.37012;95073.35;;;;
2020/03/12 04:44:28;;;;;;;2.6;1.6;;;;;;;5.2;95.37012;95073.35;;;;
2020/03/12 04:45:29;;;;;;;1.6;1.5;;;;;;;5.26;95.56152;95076.51;;;;
2020/03/12 04:46:30;;;;;;;1.6;1.5;;;;;;;5.26;95.56152;95076.51;;;;
2020/03/12 04:47:34;;;;;;;1.6;1.5;;;;;;;5.26;95.56152;95076.51;;;;
2020/03/12 04:48:35;;;;;;;1.6;1.5;;;;;;;5.26;95.56152;95076.51;;;;
2020/03/12 04:49:37;;;;;;;1.6;1.5;;;;;;;5.26;95.56152;95076.51;;;;
2020/03/12 04:51:02;;;;;;;1.6;1.5;;;;;;;5.26;95.56152;95076.51;;;;
2020/03/12 04:52:19;;;;;;;1.6;1.5;;;;;;;5.26;95.56152;95076.51;;;;
2020/03/12 04:53:40;;;;;;;1.6;1.5;;;;;;;5.26;95.56152;95076.51;;;;
2020/03/12 04:55:51;;;;;;;2.1;1.6;;;;;;;5.29;95.6748;95063.53;;;;
2020/03/12 04:57:37;;;;;;;2.1;1.6;;;;;;;5.29;95.6748;95063.53;;;;
2020/03/12 04:59:12;;;;;;;2.1;1.6;;;;;;;5.29;95.6748;95063.53;;;;
2020/03/12 05:01:19;;;;;;;2.1;1.6;;;;;;;5.29;95.6748;95063.53;;;;
2020/03/12 05:06:38;;;;;;;2.95;1.65;;;;;;;5.4;96.33789;95062.06;;;;
2020/03/12 05:08:23;;;;;;;2.95;1.65;;;;;;;5.4;96.33789;95062.06;;;;
2020/03/12 05:11:03;;;;;;;2.95;1.65;;;;;;;5.4;96.33789;95062.06;;;;
2020/03/12 05:12:05;;;;;;;2.95;1.65;;;;;;;5.4;96.33789;95062.06;;;;
2020/03/12 05:13:54;;;;;;;2.95;1.65;;;;;;;5.4;96.33789;95062.06;;;;
2020/03/12 05:19:19;;;;;;;1.75;1.55;;;;;;;5.73;96.70801;95052.09;;;;
2020/03/12 05:20:49;;;;;;;1.75;1.55;;;;;;;5.73;96.70801;95052.09;;;;
2020/03/12 05:22:22;;;;;;;1.75;1.55;;;;;;;5.73;96.70801;95052.09;;;;
2020/03/12 05:27:58;;;;;;;2.2;1.4;;;;;;;5.98;96.88867;95058.91;;;;
2020/03/12 05:29:33;;;;;;;2.2;1.4;;;;;;;5.98;96.88867;95058.91;;;;
2020/03/12 05:31:04;;;;;;;2.2;1.4;;;;;;;5.98;96.88867;95058.91;;;;
2020/03/12 05:32:50;;;;;;;2.2;1.4;;;;;;;5.98;96.88867;95058.91;;;;
2020/03/12 05:38:20;;;;;;;2.1;1.45;;;;;;;6.28;97.35449;95049.3;;;;
2020/03/12 05:39:54;;;;;;;2.1;1.45;;;;;;;6.28;97.35449;95049.3;;;;
2020/03/12 05:41:04;;;;;;;2.1;1.45;;;;;;;6.28;97.35449;95049.3;;;;
2020/03/12 05:42:44;;;;;;;2.1;1.45;;;;;;;6.28;97.35449;95049.3;;;;
2020/03/12 05:43:46;;;;;;;2.1;1.45;;;;;;;6.28;97.35449;95049.3;;;;
2020/03/12 05:45:33;;;;;;;2.1;1.45;;;;;;;6.28;97.35449;95049.3;;;;
2020/03/12 05:47:33;;;;;;;2.1;1.45;;;;;;;6.28;97.35449;95049.3;;;;
2020/03/12 05:50:39;;;;;;;1.6;1.5;;;;;;;6.42;97.21777;95050.85;;;;
2020/03/12 05:52:46;;;;;;;1.6;1.5;;;;;;;6.42;97.21777;95050.85;;;;
2020/03/12 05:54:22;;;;;;;1.6;1.5;;;;;;;6.42;97.21777;95050.85;;;;
2020/03/12 05:57:20;;;;;;;1.6;1.5;;;;;;;6.42;97.21777;95050.85;;;;
2020/03/12 06:03:03;;;;;;;1.8;1.7;;;;;;;6.58;97.3584;95053.94;;;;
2020/03/12 06:04:20;;;;;;;1.8;1.7;;;;;;;6.58;97.3584;95053.94;;;;
2020/03/12 06:06:02;;;;;;;1.8;1.7;;;;;;;6.58;97.3584;95053.94;;;;
2020/03/12 06:07:12;;;;;;;1.8;1.7;;;;;;;6.58;97.3584;95053.94;;;;
2020/03/12 06:08:38;;;;;;;1.8;1.7;;;;;;;6.58;97.3584;95053.94;;;;
2020/03/12 06:10:08;;;;;;;1.5;1.4;;;;;;;6.78;97.44727;95048.71;;;;
2020/03/12 06:11:26;;;;;;;1.5;1.4;;;;;;;6.78;97.44727;95048.71;;;;
2020/03/12 06:13:02;;;;;;;1.5;1.4;;;;;;;6.78;97.44727;95048.71;;;;
2020/03/12 06:22:13;;;;;;;1.75;1.4;;;;;;;7.23;97.33789;95041.33;;;;
2020/03/12 06:24:28;;;;;;;1.75;1.4;;;;;;;7.23;97.33789;95041.33;;;;
2020/03/12 06:25:51;;;;;;;1.75;1.4;;;;;;;7.23;97.33789;95041.33;;;;
2020/03/12 06:28:11;;;;;;;1.75;1.4;;;;;;;7.23;97.33789;95041.33;;;;
2020/03/12 06:33:44;;;;;;;1.65;1.55;;;;;;;8.06;97.2041;95054.16;;;;
2020/03/12 06:34:49;;;;;;;1.65;1.55;;;;;;;8.06;97.2041;95054.16;;;;
2020/03/12 06:35:57;;;;;;;1.65;1.55;;;;;;;8.06;97.2041;95054.16;;;;
2020/03/12 06:37:11;;;;;;;1.65;1.55;;;;;;;8.06;97.2041;95054.16;;;;
2020/03/12 06:39:32;;;;;;;1.65;1.55;;;;;;;8.06;97.2041;95054.16;;;;
2020/03/12 06:40:46;;;;;;;1.65;1.55;;;;;;;8.06;97.2041;95054.16;;;;
2020/03/12 06:42:39;;;;;;;2.1;1.2;;;;;;;9.42;96.00293;95041.44;;;;
2020/03/12 06:44:04;;;;;;;2.1;1.2;;;;;;;9.42;96.00293;95041.44;;;;
2020/03/12 06:46:37;;;;;;;2.1;1.2;;;;;;;9.42;96.00293;95041.44;;;;
2020/03/12 06:47:55;;;;;;;2.1;1.2;;;;;;;9.42;96.00293;95041.44;;;;
2020/03/12 06:49:25;;;;;;;2.1;1.2;;;;;;;9.42;96.00293;95041.44;;;;
2020/03/12 06:50:47;;;;;;;2.1;1.2;;;;;;;9.42;96.00293;95041.44;;;;
2020/03/12 06:52:35;;;;;;;2.55;1.2;;;;;;;10.44;94.49414;95040.14;;;;
2020/03/12 06:53:56;;;;;;;2.55;1.2;;;;;;;10.44;94.49414;95040.14;;;;
2020/03/12 07:02:24;;;;;;;2.55;1.2;;;;;;;10.44;94.49414;95040.14;;;;
2020/03/12 07:03:37;;;;;;;1.55;1.2;;;;;;;11.26;92.9668;95060.38;;;;
2020/03/12 07:04:48;;;;;;;1.55;1.2;;;;;;;11.26;92.9668;95060.38;;;;
2020/03/12 07:06:05;;;;;;;1.55;1.2;;;;;;;11.26;92.9668;95060.38;;;;
2020/03/12 07:08:04;;;;;;;1.55;1.2;;;;;;;11.26;92.9668;95060.38;;;;
2020/03/12 07:09:19;;;;;;;1.55;1.2;;;;;;;11.26;92.9668;95060.38;;;;
2020/03/12 07:10:39;;;;;;;1.55;1.2;;;;;;;11.26;92.9668;95060.38;;;;
2020/03/12 07:12:01;;;;;;;1.55;1.2;;;;;;;11.26;92.9668;95060.38;;;;
2020/03/12 07:13:17;;;;;;;1.8;1.45;;;;;;;11.96;90.94824;95059.16;;;;
2020/03/12 07:14:36;;;;;;;1.8;1.45;;;;;;;11.96;90.94824;95059.16;;;;
2020/03/12 07:16:22;;;;;;;1.8;1.45;;;;;;;11.96;90.94824;95059.16;;;;
2020/03/12 07:17:36;;;;;;;1.8;1.45;;;;;;;11.96;90.94824;95059.16;;;;
2020/03/12 07:18:48;;;;;;;1.8;1.45;;;;;;;11.96;90.94824;95059.16;;;;
2020/03/12 07:20:05;;;;;;;1.8;1.45;;;;;;;11.96;90.94824;95059.16;;;;
2020/03/12 07:21:07;;;;;;;1.8;1.45;;;;;;;11.96;90.94824;95059.16;;;;
2020/03/12 07:22:11;;;;;;;1.8;1.45;;;;;;;11.96;90.94824;95059.16;;;;
2020/03/12 07:23:16;;;;;;;1.8;1.45;;;;;;;11.96;90.94824;95059.16;;;;
2020/03/12 07:24:20;;;;;;;1.7;1.2;;;;;;;12.85;88.40137;95067.3;;;;
2020/03/12 07:25:30;;;;;;;1.7;1.2;;;;;;;12.85;88.40137;95067.3;;;;
2020/03/12 07:26:39;;;;;;;1.7;1.2;;;;;;;12.85;88.40137;95067.3;;;;
2020/03/12 07:27:43;;;;;;;1.7;1.2;;;;;;;12.85;88.40137;95067.3;;;;
2020/03/12 07:28:44;;;;;;;1.7;1.2;;;;;;;12.85;88.40137;95067.3;;;;
2020/03/12 07:29:46;;;;;;;1.7;1.2;;;;;;;12.85;88.40137;95067.3;;;;